Time;durP1;ratioP1;P1;durP2;ratioP2;P2;SDS_P1;SDS_P2;PMS_P1;PMS_P2;Temp;Humidity;BMP_temperature;BMP_pressure;BME280_temperature;BME280_humidity;BME280_pressure;Samples;Min_cycle;Max_cycle;Signal;HPM_P1;HPM_P2
2022/10/23 00:05:02;;;;;;;1.67;0.93;;;;;;;11.98;100.00;97773.28;18236753;32;20062;-62
2022/10/23 00:15:05;;;;;;;2.62;0.77;;;;;;;12.16;100.00;97753.69;18235726;32;20084;-62
2022/10/23 00:25:08;;;;;;;1.90;1.00;;;;;;;12.31;100.00;97755.50;18236136;32;20089;-62
2022/10/23 00:35:11;;;;;;;2.62;0.80;;;;;;;12.44;100.00;97742.41;18234689;32;20046;-62
2022/10/23 00:45:21;;;;;;;4.25;1.00;;;;;;;12.54;100.00;97745.09;18235281;32;20110;-62
2022/10/23 00:55:25;;;;;;;3.55;1.05;;;;;;;12.71;100.00;97750.91;18162680;32;20100;-63
2022/10/23 01:05:35;;;;;;;2.15;0.73;;;;;;;12.83;100.00;97742.44;18037678;32;20079;-62
2022/10/23 01:15:51;;;;;;;2.53;0.80;;;;;;;12.92;100.00;97715.50;18037575;32;20116;-62
2022/10/23 01:26:18;;;;;;;0.85;0.50;;;;;;;12.86;100.00;97709.28;18048601;32;20091;-63
2022/10/23 01:36:25;;;;;;;1.08;0.60;;;;;;;12.72;100.00;97702.91;18214492;32;20064;-63
2022/10/23 01:46:30;;;;;;;0.70;0.40;;;;;;;12.61;100.00;97704.09;18232269;32;20050;-62
2022/10/23 01:56:38;;;;;;;3.60;0.80;;;;;;;12.50;100.00;97698.72;18231963;32;20431;-62
2022/10/23 02:06:40;;;;;;;3.28;0.60;;;;;;;12.33;100.00;97690.16;18231625;32;20054;-62
2022/10/23 02:16:48;;;;;;;2.97;0.60;;;;;;;12.12;100.00;97682.13;18231434;32;20106;-62
2022/10/23 02:26:54;;;;;;;1.42;0.80;;;;;;;11.92;100.00;97674.91;18230941;32;20095;-62
2022/10/23 02:36:57;;;;;;;3.30;0.80;;;;;;;11.70;100.00;97659.84;18230522;32;20461;-62
2022/10/23 02:47:23;;;;;;;1.75;1.00;;;;;;;11.42;100.00;97650.47;18083250;32;20445;-62
2022/10/23 02:57:33;;;;;;;2.87;1.02;;;;;;;11.22;100.00;97634.28;18032365;32;20518;-62
2022/10/23 03:07:38;;;;;;;1.42;1.10;;;;;;;11.11;100.00;97631.59;18042905;32;20407;-63
2022/10/23 03:17:41;;;;;;;2.75;1.10;;;;;;;11.01;100.00;97620.78;18148224;32;20402;-62
2022/10/23 03:27:43;;;;;;;1.98;0.90;;;;;;;10.93;100.00;97597.00;18166285;32;20105;-62
2022/10/23 03:37:46;;;;;;;1.65;0.60;;;;;;;10.93;100.00;97605.13;18238274;32;20096;-62
2022/10/23 03:47:50;;;;;;;3.10;1.10;;;;;;;10.93;100.00;97592.41;18237679;32;20054;-61
2022/10/23 03:57:55;;;;;;;3.37;0.67;;;;;;;10.93;100.00;97600.50;18236994;32;20359;-62
2022/10/23 04:07:58;;;;;;;1.73;0.60;;;;;;;10.98;100.00;97597.00;18237161;32;20046;-62
2022/10/23 04:18:00;;;;;;;2.08;0.90;;;;;;;11.12;100.00;97586.41;18235020;32;20111;-62
2022/10/23 04:28:03;;;;;;;2.62;0.52;;;;;;;11.13;100.00;97586.13;18163763;32;20119;-62
2022/10/23 04:38:05;;;;;;;1.45;0.57;;;;;;;10.91;100.00;97589.16;18163358;32;20066;-62
2022/10/23 04:48:08;;;;;;;2.40;0.60;;;;;;;10.75;100.00;97591.09;18038819;32;20117;-62
2022/10/23 04:58:10;;;;;;;1.55;0.55;;;;;;;10.66;100.00;97598.13;18046981;32;20141;-62
2022/10/23 05:08:13;;;;;;;1.20;0.57;;;;;;;10.58;100.00;97595.97;18087286;32;20055;-63
2022/10/23 05:18:21;;;;;;;4.25;0.70;;;;;;;10.46;100.00;97591.66;18206290;32;20054;-62
2022/10/23 05:28:23;;;;;;;1.33;0.70;;;;;;;10.29;100.00;97591.06;18232759;32;20050;-62
2022/10/23 05:38:28;;;;;;;3.70;0.98;;;;;;;10.20;100.00;97601.63;18231520;32;20088;-62
2022/10/23 05:48:31;;;;;;;3.10;0.68;;;;;;;10.08;100.00;97587.56;18231490;32;20054;-62
2022/10/23 05:58:36;;;;;;;1.25;0.62;;;;;;;10.01;100.00;97582.41;18159426;32;20081;-62
2022/10/23 06:08:38;;;;;;;1.40;0.67;;;;;;;9.94;100.00;97581.88;18159449;32;20364;-63
2022/10/23 06:18:42;;;;;;;1.57;0.90;;;;;;;9.84;100.00;97577.28;17973577;32;20043;-62
2022/10/23 06:28:45;;;;;;;5.07;0.90;;;;;;;9.82;100.00;97577.53;17991110;32;20083;-62
2022/10/23 06:38:48;;;;;;;1.43;0.73;;;;;;;9.87;100.00;97568.63;18102779;32;20431;-62
2022/10/23 06:48:51;;;;;;;4.07;0.88;;;;;;;10.02;100.00;97567.84;18200503;32;20473;-62
2022/10/23 06:58:53;;;;;;;1.48;0.85;;;;;;;10.18;100.00;97571.34;18239828;32;20061;-62
2022/10/23 07:08:56;;;;;;;2.87;0.60;;;;;;;10.39;100.00;97572.22;18239696;32;20092;-62
2022/10/23 07:19:00;;;;;;;1.10;0.60;;;;;;;10.61;100.00;97577.31;18239166;32;20188;-63
2022/10/23 07:29:03;;;;;;;1.90;1.17;;;;;;;10.84;100.00;97578.63;18237862;32;20092;-62
2022/10/23 07:39:05;;;;;;;2.22;1.17;;;;;;;11.15;100.00;97567.72;18238307;32;20054;-62
2022/10/23 07:49:10;;;;;;;1.80;1.30;;;;;;;11.61;100.00;97580.25;18223745;32;20109;-62
2022/10/23 07:59:12;;;;;;;2.60;1.60;;;;;;;12.03;100.00;97575.41;18236937;32;20050;-62
2022/10/23 08:09:15;;;;;;;2.55;1.20;;;;;;;12.38;100.00;97579.75;18236947;32;20102;-62
2022/10/23 08:19:17;;;;;;;1.80;1.35;;;;;;;12.77;100.00;97578.06;18235098;32;20081;-62
2022/10/23 08:29:20;;;;;;;2.10;1.50;;;;;;;13.09;100.00;97567.69;18235777;32;20073;-62
2022/10/23 08:39:22;;;;;;;1.30;0.98;;;;;;;13.42;100.00;97563.25;18222154;32;20400;-62
2022/10/23 08:49:49;;;;;;;1.98;1.10;;;;;;;13.80;100.00;97538.84;18234123;32;20069;-62
2022/10/23 08:59:58;;;;;;;2.75;1.20;;;;;;;14.19;100.00;97548.56;18233676;32;20410;-63
2022/10/23 09:10:33;;;;;;;1.65;1.20;;;;;;;14.50;100.00;97531.75;18234061;32;20042;-62
2022/10/23 09:20:36;;;;;;;1.43;1.23;;;;;;;14.78;100.00;97533.72;18233520;32;20085;-63
2022/10/23 09:30:41;;;;;;;1.70;1.10;;;;;;;15.05;100.00;97525.56;18233472;32;20066;-62
2022/10/23 09:40:44;;;;;;;1.83;1.00;;;;;;;15.41;100.00;97513.12;18233339;32;20054;-63
2022/10/23 09:50:57;;;;;;;2.30;1.47;;;;;;;15.68;96.01;97511.47;18231356;32;20079;-62
2022/10/23 10:01:01;;;;;;;2.25;1.10;;;;;;;16.01;97.20;97503.91;18230563;32;20073;-62
2022/10/23 10:11:09;;;;;;;1.83;1.20;;;;;;;16.18;96.58;97496.94;18234201;32;20374;-62
2022/10/23 10:21:22;;;;;;;1.98;1.35;;;;;;;16.18;95.18;97507.88;18241875;32;20080;-62
2022/10/23 10:31:32;;;;;;;1.42;0.90;;;;;;;16.51;94.62;97527.50;18240705;32;20166;-63
2022/10/23 10:41:54;;;;;;;2.08;1.12;;;;;;;16.73;90.83;97529.38;18239553;32;20420;-62
2022/10/23 10:52:06;;;;;;;1.77;1.10;;;;;;;17.03;90.29;97518.75;18239147;32;20073;-62
2022/10/23 11:02:25;;;;;;;2.58;1.33;;;;;;;17.27;87.72;97504.69;18239820;32;20098;-63
2022/10/23 11:12:28;;;;;;;2.45;1.40;;;;;;;17.44;89.07;97486.72;18239397;32;20098;-62
2022/10/23 11:22:35;;;;;;;3.58;1.75;;;;;;;17.91;87.91;97461.47;18236754;32;20084;-62
2022/10/23 11:33:07;;;;;;;2.33;1.60;;;;;;;18.18;87.53;97456.81;18238531;32;20107;-62
2022/10/23 11:43:09;;;;;;;5.43;1.80;;;;;;;18.40;87.59;97434.66;18237903;32;20067;-63
2022/10/23 11:53:39;;;;;;;7.10;1.73;;;;;;;18.75;82.29;97433.75;18237939;32;20073;-62
2022/10/23 12:04:05;;;;;;;2.70;1.70;;;;;;;18.61;84.13;97418.34;18223176;32;20377;-63
2022/10/23 12:14:27;;;;;;;7.80;2.00;;;;;;;18.72;81.08;97388.66;18236455;32;20042;-63
2022/10/23 12:25:02;;;;;;;3.53;1.70;;;;;;;18.65;82.68;97365.66;18236205;32;20058;-63
2022/10/23 12:35:23;;;;;;;6.47;1.55;;;;;;;18.71;81.80;97353.38;18235891;32;20150;-63
2022/10/23 12:45:31;;;;;;;3.45;1.70;;;;;;;18.83;81.62;97328.81;18234323;32;20441;-63
2022/10/23 12:56:00;;;;;;;3.62;1.58;;;;;;;19.21;79.08;97314.22;18234987;32;20373;-62
2022/10/23 13:06:03;;;;;;;1.95;1.27;;;;;;;19.21;78.11;97316.97;18234187;32;20385;-62
2022/10/23 13:16:19;;;;;;;3.05;1.80;;;;;;;19.38;78.32;97316.00;18233961;32;20047;-63
2022/10/23 13:26:31;;;;;;;5.03;1.98;;;;;;;19.39;77.49;97314.06;18232718;32;20088;-62
2022/10/23 13:36:38;;;;;;;3.08;1.75;;;;;;;19.12;79.63;97277.88;18231791;32;20058;-62
2022/10/23 13:46:41;;;;;;;4.90;2.10;;;;;;;19.09;80.13;97262.06;18232456;32;20412;-62
2022/10/23 13:56:44;;;;;;;;;;;;;;;19.00;81.10;97266.84;18231717;32;20090;-63
2022/10/23 14:06:46;;;;;;;4.40;1.73;;;;;;;18.84;80.13;97240.00;18232143;32;19958;-62
2022/10/23 14:16:51;;;;;;;7.32;2.22;;;;;;;18.94;81.15;97253.34;18231685;32;20077;-62
2022/10/23 14:26:56;;;;;;;5.30;1.98;;;;;;;18.69;80.24;97268.00;18217277;32;20058;-62
2022/10/23 14:36:59;;;;;;;3.45;1.90;;;;;;;18.42;81.01;97265.44;18230351;32;20113;-63
2022/10/23 14:47:10;;;;;;;6.37;2.00;;;;;;;18.08;82.38;97288.31;18229746;32;20404;-62
2022/10/23 14:57:15;;;;;;;5.13;1.83;;;;;;;17.88;84.98;97298.84;18233345;32;20083;-62
2022/10/23 15:07:18;;;;;;;4.20;1.85;;;;;;;17.79;87.96;97296.13;18239731;32;20067;-62
2022/10/23 15:17:21;;;;;;;5.07;2.30;;;;;;;17.66;87.93;97249.84;18238125;32;20038;-62
2022/10/23 15:27:24;;;;;;;6.65;2.67;;;;;;;17.47;91.11;97248.28;18237228;32;20102;-62
2022/10/23 15:37:27;;;;;;;7.87;2.77;;;;;;;17.21;92.82;97199.97;18238644;32;20062;-62
2022/10/23 15:47:30;;;;;;;6.78;2.20;;;;;;;16.94;97.40;97173.84;18238046;32;20072;-62
2022/10/23 15:57:32;;;;;;;7.18;2.40;;;;;;;16.67;99.00;97166.78;18223934;32;20099;-62
2022/10/23 16:07:35;;;;;;;5.80;2.50;;;;;;;16.55;100.00;97162.78;18236827;32;20066;-62
2022/10/23 16:17:38;;;;;;;8.13;3.03;;;;;;;16.41;100.00;97165.63;18227291;32;20236;-62
2022/10/23 16:27:41;;;;;;;11.17;2.80;;;;;;;16.39;100.00;97167.06;18214865;32;20062;-62
2022/10/23 16:37:44;;;;;;;9.35;5.00;;;;;;;16.52;99.52;97190.69;18226240;32;20062;-62
2022/10/23 16:47:48;;;;;;;7.93;3.83;;;;;;;16.61;96.62;97228.91;18233673;32;20435;-62
2022/10/23 16:57:50;;;;;;;8.50;3.50;;;;;;;16.54;95.41;97253.12;18233661;32;20102;-62
2022/10/23 17:07:53;;;;;;;9.10;4.00;;;;;;;16.47;97.88;97297.25;18225336;32;20082;-62
2022/10/23 17:17:56;;;;;;;10.93;2.42;;;;;;;16.30;99.33;97308.16;18223867;32;20132;-62
2022/10/23 17:27:59;;;;;;;9.35;2.22;;;;;;;16.35;94.58;97322.44;18224546;32;20071;-62
2022/10/23 17:38:02;;;;;;;11.05;2.03;;;;;;;17.20;80.48;97348.63;18218863;32;20098;-62
2022/10/23 17:48:05;;;;;;;6.97;1.20;;;;;;;18.41;70.23;97367.84;18231565;32;20059;-62
2022/10/23 17:58:08;;;;;;;3.85;0.82;;;;;;;18.94;68.17;97387.59;18230784;32;20046;-62
2022/10/23 18:08:10;;;;;;;6.90;1.15;;;;;;;19.25;61.28;97421.22;18232340;32;20466;-62
2022/10/23 18:18:13;;;;;;;3.37;0.63;;;;;;;19.57;60.46;97451.78;18096818;32;20118;-62
2022/10/23 18:28:16;;;;;;;10.77;1.00;;;;;;;19.63;62.25;97481.44;18096924;32;20112;-62
2022/10/23 18:38:19;;;;;;;11.40;0.97;;;;;;;19.20;66.55;97430.47;18107056;32;20086;-62
2022/10/23 18:48:21;;;;;;;7.37;1.13;;;;;;;18.85;67.79;97443.53;18126334;32;20055;-62
2022/10/23 18:58:24;;;;;;;3.53;0.90;;;;;;;18.66;65.33;97397.38;18240220;32;20354;-62
2022/10/23 19:08:27;;;;;;;3.30;0.50;;;;;;;18.46;67.59;97413.41;18240031;32;20081;-62
2022/10/23 19:18:32;;;;;;;5.45;0.55;;;;;;;18.48;67.77;97382.97;18239176;32;20038;-62
2022/10/23 19:28:38;;;;;;;3.35;0.60;;;;;;;18.16;69.59;97377.78;18237923;32;20507;-62
2022/10/23 19:38:41;;;;;;;6.85;0.73;;;;;;;18.22;68.40;97375.66;18237165;32;20062;-62
2022/10/23 19:48:45;;;;;;;5.37;0.50;;;;;;;18.10;66.25;97398.22;18237976;32;20058;-62
2022/10/23 19:58:49;;;;;;;8.82;0.80;;;;;;;18.33;66.27;97373.38;18236102;32;20418;-62
2022/10/23 20:08:52;;;;;;;4.63;0.83;;;;;;;18.28;66.83;97424.44;18236065;32;20434;-62
2022/10/23 20:18:56;;;;;;;3.15;1.00;;;;;;;18.23;69.52;97426.53;18236798;32;20225;-63
2022/10/23 20:28:59;;;;;;;3.62;0.90;;;;;;;17.85;73.72;97436.22;18236498;32;20063;-63
2022/10/23 20:39:08;;;;;;;4.90;0.80;;;;;;;17.63;73.62;97453.59;18235904;32;20073;-62
2022/10/23 20:49:12;;;;;;;7.20;1.08;;;;;;;17.30;75.98;97459.53;18235718;32;20091;-62
2022/10/23 20:59:17;;;;;;;2.70;0.90;;;;;;;17.03;78.13;97434.06;18234799;32;20093;-62
2022/10/23 21:09:20;;;;;;;5.70;1.10;;;;;;;16.99;78.96;97445.97;18234532;32;20059;-62
2022/10/23 21:19:23;;;;;;;2.43;1.20;;;;;;;16.94;80.35;97442.25;18234298;32;20076;-62
2022/10/23 21:29:25;;;;;;;5.62;1.75;;;;;;;16.85;80.55;97435.94;18233697;32;20058;-62
2022/10/23 21:39:28;;;;;;;7.47;1.70;;;;;;;16.92;80.50;97436.31;18233513;32;20053;-62
2022/10/23 21:49:31;;;;;;;7.90;1.90;;;;;;;17.31;78.08;97450.22;18232925;32;20130;-62
2022/10/23 21:59:33;;;;;;;9.82;1.92;;;;;;;17.50;77.53;97458.13;18231941;32;20117;-62
2022/10/23 22:09:37;;;;;;;8.10;1.95;;;;;;;17.72;75.09;97489.12;18231945;32;20071;-62
2022/10/23 22:19:40;;;;;;;6.55;1.60;;;;;;;17.54;83.63;97478.22;18231433;32;20059;-63
2022/10/23 22:29:42;;;;;;;4.57;1.57;;;;;;;17.08;84.19;97449.53;18231302;32;20046;-62
2022/10/23 22:39:45;;;;;;;10.15;2.22;;;;;;;16.76;85.10;97446.03;18229591;32;20077;-62
2022/10/23 22:49:47;;;;;;;3.75;1.48;;;;;;;16.64;85.20;97434.91;18216331;32;20088;-62
2022/10/23 22:59:50;;;;;;;5.72;2.30;;;;;;;16.38;85.57;97435.59;18229234;32;20073;-62
2022/10/23 23:09:52;;;;;;;8.40;2.05;;;;;;;16.43;88.22;97410.88;18228135;32;20114;-63
2022/10/23 23:19:55;;;;;;;7.75;1.85;;;;;;;16.53;84.36;97416.09;18233517;32;20118;-63
2022/10/23 23:29:57;;;;;;;12.07;2.65;;;;;;;16.68;84.25;97411.34;18239122;32;20086;-63
2022/10/23 23:39:59;;;;;;;11.30;2.53;;;;;;;16.84;85.16;97441.72;18166584;32;20537;-62
2022/10/23 23:50:03;;;;;;;6.95;1.98;;;;;;;17.07;83.97;97424.13;18166115;32;20353;-62
